sensor_id;sensor_type;location;lat;lon;timestamp;temperature;humidity
15357;DHT22;7778;48.792;9.260;2023-05-07T00:01:51;15.20;99.90
15357;DHT22;7778;48.792;9.260;2023-05-07T00:04:40;15.00;99.90
15357;DHT22;7778;48.792;9.260;2023-05-07T00:07:26;14.90;99.90
15357;DHT22;7778;48.792;9.260;2023-05-07T00:10:13;14.90;99.90
15357;DHT22;7778;48.792;9.260;2023-05-07T00:13:00;14.80;99.90
15357;DHT22;7778;48.792;9.260;2023-05-07T00:15:47;14.80;99.90
15357;DHT22;7778;48.792;9.260;2023-05-07T00:18:33;14.70;99.90
15357;DHT22;7778;48.792;9.260;2023-05-07T00:21:19;14.70;99.90
15357;DHT22;7778;48.792;9.260;2023-05-07T00:24:07;14.80;99.90
15357;DHT22;7778;48.792;9.260;2023-05-07T00:26:53;14.70;99.90
15357;DHT22;7778;48.792;9.260;2023-05-07T00:29:40;14.60;99.90
15357;DHT22;7778;48.792;9.260;2023-05-07T00:32:26;14.60;99.90
15357;DHT22;7778;48.792;9.260;2023-05-07T00:35:12;14.60;99.90
15357;DHT22;7778;48.792;9.260;2023-05-07T00:37:58;14.50;99.90
15357;DHT22;7778;48.792;9.260;2023-05-07T00:40:45;14.50;99.90
15357;DHT22;7778;48.792;9.260;2023-05-07T00:43:30;14.50;99.90
15357;DHT22;7778;48.792;9.260;2023-05-07T00:46:18;14.50;99.90
15357;DHT22;7778;48.792;9.260;2023-05-07T00:49:06;14.40;99.90
15357;DHT22;7778;48.792;9.260;2023-05-07T00:51:52;14.40;99.90
15357;DHT22;7778;48.792;9.260;2023-05-07T00:54:38;14.50;99.90
15357;DHT22;7778;48.792;9.260;2023-05-07T00:57:25;14.10;99.90
15357;DHT22;7778;48.792;9.260;2023-05-07T01:00:12;13.90;99.90
15357;DHT22;7778;48.792;9.260;2023-05-07T01:03:00;13.80;99.90
15357;DHT22;7778;48.792;9.260;2023-05-07T01:05:46;13.90;99.90
15357;DHT22;7778;48.792;9.260;2023-05-07T01:08:33;14.20;99.90
15357;DHT22;7778;48.792;9.260;2023-05-07T01:11:20;14.10;99.90
15357;DHT22;7778;48.792;9.260;2023-05-07T01:14:07;14.10;99.90
15357;DHT22;7778;48.792;9.260;2023-05-07T01:16:54;14.10;99.90
15357;DHT22;7778;48.792;9.260;2023-05-07T01:19:41;14.20;99.90
15357;DHT22;7778;48.792;9.260;2023-05-07T01:22:30;14.20;99.90
15357;DHT22;7778;48.792;9.260;2023-05-07T01:25:17;14.20;99.90
15357;DHT22;7778;48.792;9.260;2023-05-07T01:28:03;14.30;99.90
15357;DHT22;7778;48.792;9.260;2023-05-07T01:30:54;14.20;99.90
15357;DHT22;7778;48.792;9.260;2023-05-07T01:33:43;14.20;99.90
15357;DHT22;7778;48.792;9.260;2023-05-07T01:36:31;14.20;99.90
15357;DHT22;7778;48.792;9.260;2023-05-07T01:39:21;14.40;99.90
15357;DHT22;7778;48.792;9.260;2023-05-07T01:42:08;14.10;99.90
15357;DHT22;7778;48.792;9.260;2023-05-07T01:44:53;14.10;99.90
15357;DHT22;7778;48.792;9.260;2023-05-07T01:47:41;14.00;99.90
15357;DHT22;7778;48.792;9.260;2023-05-07T01:50:28;14.20;99.90
15357;DHT22;7778;48.792;9.260;2023-05-07T01:53:15;14.00;99.90
15357;DHT22;7778;48.792;9.260;2023-05-07T01:56:03;14.00;99.90
15357;DHT22;7778;48.792;9.260;2023-05-07T01:58:50;13.90;99.90
15357;DHT22;7778;48.792;9.260;2023-05-07T02:01:38;13.90;99.90
15357;DHT22;7778;48.792;9.260;2023-05-07T02:04:24;13.90;99.90
15357;DHT22;7778;48.792;9.260;2023-05-07T02:07:11;13.80;99.90
15357;DHT22;7778;48.792;9.260;2023-05-07T02:09:57;13.90;99.90
15357;DHT22;7778;48.792;9.260;2023-05-07T02:12:44;13.70;99.90
15357;DHT22;7778;48.792;9.260;2023-05-07T02:15:30;13.70;99.90
15357;DHT22;7778;48.792;9.260;2023-05-07T02:18:16;13.70;99.90
15357;DHT22;7778;48.792;9.260;2023-05-07T02:21:03;13.70;99.90
15357;DHT22;7778;48.792;9.260;2023-05-07T02:23:49;13.60;99.90
15357;DHT22;7778;48.792;9.260;2023-05-07T02:26:34;13.60;99.90
15357;DHT22;7778;48.792;9.260;2023-05-07T02:29:21;13.80;99.90
15357;DHT22;7778;48.792;9.260;2023-05-07T02:32:07;13.50;99.90
15357;DHT22;7778;48.792;9.260;2023-05-07T02:34:53;13.50;99.90
15357;DHT22;7778;48.792;9.260;2023-05-07T02:37:39;13.60;99.90
15357;DHT22;7778;48.792;9.260;2023-05-07T02:40:24;13.70;99.90
15357;DHT22;7778;48.792;9.260;2023-05-07T02:43:10;13.50;99.90
15357;DHT22;7778;48.792;9.260;2023-05-07T02:46:02;13.60;99.90
15357;DHT22;7778;48.792;9.260;2023-05-07T02:48:48;13.50;99.90
15357;DHT22;7778;48.792;9.260;2023-05-07T02:51:34;13.40;99.90
15357;DHT22;7778;48.792;9.260;2023-05-07T02:54:20;13.40;99.90
15357;DHT22;7778;48.792;9.260;2023-05-07T02:57:08;13.40;99.90
15357;DHT22;7778;48.792;9.260;2023-05-07T02:59:54;13.40;99.90
15357;DHT22;7778;48.792;9.260;2023-05-07T03:02:41;13.30;99.90
15357;DHT22;7778;48.792;9.260;2023-05-07T03:05:27;13.30;99.90
15357;DHT22;7778;48.792;9.260;2023-05-07T03:08:13;13.20;99.90
15357;DHT22;7778;48.792;9.260;2023-05-07T03:10:58;13.10;99.90
15357;DHT22;7778;48.792;9.260;2023-05-07T03:13:44;13.20;99.90
15357;DHT22;7778;48.792;9.260;2023-05-07T03:16:30;13.00;99.90
15357;DHT22;7778;48.792;9.260;2023-05-07T03:19:17;13.10;99.90
15357;DHT22;7778;48.792;9.260;2023-05-07T03:22:03;13.10;99.90
15357;DHT22;7778;48.792;9.260;2023-05-07T03:24:50;13.00;99.90
15357;DHT22;7778;48.792;9.260;2023-05-07T03:27:35;13.00;99.90
15357;DHT22;7778;48.792;9.260;2023-05-07T03:30:22;12.90;99.90
15357;DHT22;7778;48.792;9.260;2023-05-07T03:33:09;12.90;99.90
15357;DHT22;7778;48.792;9.260;2023-05-07T03:35:57;12.80;99.90
15357;DHT22;7778;48.792;9.260;2023-05-07T03:38:43;12.80;99.90
15357;DHT22;7778;48.792;9.260;2023-05-07T03:41:29;12.70;99.90
15357;DHT22;7778;48.792;9.260;2023-05-07T03:44:15;12.70;99.90
15357;DHT22;7778;48.792;9.260;2023-05-07T03:47:00;12.80;99.90
15357;DHT22;7778;48.792;9.260;2023-05-07T03:49:46;12.70;99.90
15357;DHT22;7778;48.792;9.260;2023-05-07T03:52:33;12.70;99.90
15357;DHT22;7778;48.792;9.260;2023-05-07T03:55:19;12.90;99.90
15357;DHT22;7778;48.792;9.260;2023-05-07T03:58:05;12.70;99.90
15357;DHT22;7778;48.792;9.260;2023-05-07T04:00:51;12.90;99.90
15357;DHT22;7778;48.792;9.260;2023-05-07T04:03:37;12.90;99.90
15357;DHT22;7778;48.792;9.260;2023-05-07T04:06:23;12.80;99.90
15357;DHT22;7778;48.792;9.260;2023-05-07T04:09:10;12.90;99.90
15357;DHT22;7778;48.792;9.260;2023-05-07T04:11:56;12.80;99.90
15357;DHT22;7778;48.792;9.260;2023-05-07T04:14:42;12.70;99.90
15357;DHT22;7778;48.792;9.260;2023-05-07T04:17:28;12.70;99.90
15357;DHT22;7778;48.792;9.260;2023-05-07T04:20:15;12.70;99.90
15357;DHT22;7778;48.792;9.260;2023-05-07T04:23:01;13.00;99.90
15357;DHT22;7778;48.792;9.260;2023-05-07T04:25:49;12.80;99.90
15357;DHT22;7778;48.792;9.260;2023-05-07T04:28:36;12.80;99.90
15357;DHT22;7778;48.792;9.260;2023-05-07T04:31:21;12.90;99.90
15357;DHT22;7778;48.792;9.260;2023-05-07T04:34:07;13.00;99.90
15357;DHT22;7778;48.792;9.260;2023-05-07T04:36:53;13.00;99.90
15357;DHT22;7778;48.792;9.260;2023-05-07T04:39:40;13.20;99.90
15357;DHT22;7778;48.792;9.260;2023-05-07T04:42:26;13.10;99.90
15357;DHT22;7778;48.792;9.260;2023-05-07T04:45:12;13.40;99.90
15357;DHT22;7778;48.792;9.260;2023-05-07T04:47:58;13.60;99.90
15357;DHT22;7778;48.792;9.260;2023-05-07T04:50:47;13.60;99.90
15357;DHT22;7778;48.792;9.260;2023-05-07T04:53:33;13.70;99.90
15357;DHT22;7778;48.792;9.260;2023-05-07T04:56:18;13.70;99.90
15357;DHT22;7778;48.792;9.260;2023-05-07T04:59:06;13.70;99.90
15357;DHT22;7778;48.792;9.260;2023-05-07T05:01:51;13.70;99.90
15357;DHT22;7778;48.792;9.260;2023-05-07T05:04:37;13.90;99.90
15357;DHT22;7778;48.792;9.260;2023-05-07T05:07:22;13.80;99.90
15357;DHT22;7778;48.792;9.260;2023-05-07T05:10:09;13.80;99.90
15357;DHT22;7778;48.792;9.260;2023-05-07T05:12:55;13.80;99.90
15357;DHT22;7778;48.792;9.260;2023-05-07T05:15:42;13.80;99.90
15357;DHT22;7778;48.792;9.260;2023-05-07T05:18:27;13.80;99.90
15357;DHT22;7778;48.792;9.260;2023-05-07T05:21:13;13.90;99.90
15357;DHT22;7778;48.792;9.260;2023-05-07T05:23:58;14.10;99.90
15357;DHT22;7778;48.792;9.260;2023-05-07T05:26:44;14.40;99.90
15357;DHT22;7778;48.792;9.260;2023-05-07T05:29:29;14.80;99.90
15357;DHT22;7778;48.792;9.260;2023-05-07T05:32:17;14.70;99.90
15357;DHT22;7778;48.792;9.260;2023-05-07T05:35:03;15.30;99.90
15357;DHT22;7778;48.792;9.260;2023-05-07T05:37:49;16.30;99.90
15357;DHT22;7778;48.792;9.260;2023-05-07T05:40:35;17.60;99.90
15357;DHT22;7778;48.792;9.260;2023-05-07T05:43:21;19.40;99.90
15357;DHT22;7778;48.792;9.260;2023-05-07T05:46:06;21.40;99.90
15357;DHT22;7778;48.792;9.260;2023-05-07T05:48:54;23.00;99.90
15357;DHT22;7778;48.792;9.260;2023-05-07T05:51:39;23.10;99.90
15357;DHT22;7778;48.792;9.260;2023-05-07T05:54:25;23.00;99.90
15357;DHT22;7778;48.792;9.260;2023-05-07T05:57:11;23.00;99.90
15357;DHT22;7778;48.792;9.260;2023-05-07T05:59:56;23.10;99.90
15357;DHT22;7778;48.792;9.260;2023-05-07T06:02:42;23.40;99.90
15357;DHT22;7778;48.792;9.260;2023-05-07T06:05:29;23.50;99.90
15357;DHT22;7778;48.792;9.260;2023-05-07T06:08:15;22.70;99.90
15357;DHT22;7778;48.792;9.260;2023-05-07T06:11:01;21.60;99.90
15357;DHT22;7778;48.792;9.260;2023-05-07T06:13:50;22.30;99.90
15357;DHT22;7778;48.792;9.260;2023-05-07T06:16:38;24.30;99.90
15357;DHT22;7778;48.792;9.260;2023-05-07T06:19:24;25.70;99.90
15357;DHT22;7778;48.792;9.260;2023-05-07T06:22:12;25.10;99.90
15357;DHT22;7778;48.792;9.260;2023-05-07T06:24:57;23.70;99.90
15357;DHT22;7778;48.792;9.260;2023-05-07T06:27:43;22.40;99.90
15357;DHT22;7778;48.792;9.260;2023-05-07T06:30:28;21.10;99.90
15357;DHT22;7778;48.792;9.260;2023-05-07T06:33:15;20.50;99.90
15357;DHT22;7778;48.792;9.260;2023-05-07T06:36:01;20.00;99.90
15357;DHT22;7778;48.792;9.260;2023-05-07T06:38:50;19.60;99.90
15357;DHT22;7778;48.792;9.260;2023-05-07T06:41:36;19.70;99.90
15357;DHT22;7778;48.792;9.260;2023-05-07T06:44:23;20.10;99.90
15357;DHT22;7778;48.792;9.260;2023-05-07T06:47:09;21.20;99.90
15357;DHT22;7778;48.792;9.260;2023-05-07T06:49:55;22.30;99.90
15357;DHT22;7778;48.792;9.260;2023-05-07T06:52:44;23.30;99.90
15357;DHT22;7778;48.792;9.260;2023-05-07T06:55:31;24.00;99.90
15357;DHT22;7778;48.792;9.260;2023-05-07T06:58:18;23.70;99.90
15357;DHT22;7778;48.792;9.260;2023-05-07T07:01:04;24.40;99.90
15357;DHT22;7778;48.792;9.260;2023-05-07T07:03:51;25.50;99.90
15357;DHT22;7778;48.792;9.260;2023-05-07T07:06:37;27.20;99.90
15357;DHT22;7778;48.792;9.260;2023-05-07T07:09:23;28.00;99.90
15357;DHT22;7778;48.792;9.260;2023-05-07T07:12:12;29.10;99.90
15357;DHT22;7778;48.792;9.260;2023-05-07T07:14:59;29.80;99.90
15357;DHT22;7778;48.792;9.260;2023-05-07T07:17:46;28.40;99.90
15357;DHT22;7778;48.792;9.260;2023-05-07T07:20:33;28.30;99.90
15357;DHT22;7778;48.792;9.260;2023-05-07T07:23:18;27.40;99.90
15357;DHT22;7778;48.792;9.260;2023-05-07T07:26:04;28.00;99.90
15357;DHT22;7778;48.792;9.260;2023-05-07T07:28:51;27.70;99.90
15357;DHT22;7778;48.792;9.260;2023-05-07T07:31:37;27.50;99.90
15357;DHT22;7778;48.792;9.260;2023-05-07T07:34:23;28.80;99.90
15357;DHT22;7778;48.792;9.260;2023-05-07T07:37:08;29.80;99.80
15357;DHT22;7778;48.792;9.260;2023-05-07T07:39:55;30.20;97.60
15357;DHT22;7778;48.792;9.260;2023-05-07T07:42:41;30.30;96.50
15357;DHT22;7778;48.792;9.260;2023-05-07T07:45:28;30.70;97.00
15357;DHT22;7778;48.792;9.260;2023-05-07T07:48:14;30.40;95.80
15357;DHT22;7778;48.792;9.260;2023-05-07T07:50:59;29.80;97.00
15357;DHT22;7778;48.792;9.260;2023-05-07T07:53:45;29.90;97.20
15357;DHT22;7778;48.792;9.260;2023-05-07T07:56:32;30.40;97.10
15357;DHT22;7778;48.792;9.260;2023-05-07T07:59:18;29.70;95.30
15357;DHT22;7778;48.792;9.260;2023-05-07T08:02:06;29.10;98.70
15357;DHT22;7778;48.792;9.260;2023-05-07T08:04:51;29.20;98.30
15357;DHT22;7778;48.792;9.260;2023-05-07T08:07:37;29.80;98.40
15357;DHT22;7778;48.792;9.260;2023-05-07T08:10:23;29.40;97.30
15357;DHT22;7778;48.792;9.260;2023-05-07T08:13:08;29.30;96.80
15357;DHT22;7778;48.792;9.260;2023-05-07T08:15:54;27.90;95.30
15357;DHT22;7778;48.792;9.260;2023-05-07T08:18:41;26.90;99.20
15357;DHT22;7778;48.792;9.260;2023-05-07T08:21:26;26.50;99.90
15357;DHT22;7778;48.792;9.260;2023-05-07T08:24:12;26.90;99.90
15357;DHT22;7778;48.792;9.260;2023-05-07T08:26:58;27.40;98.40
15357;DHT22;7778;48.792;9.260;2023-05-07T08:29:44;27.50;99.90
15357;DHT22;7778;48.792;9.260;2023-05-07T08:32:31;27.80;99.90
15357;DHT22;7778;48.792;9.260;2023-05-07T08:35:19;28.20;97.50
15357;DHT22;7778;48.792;9.260;2023-05-07T08:38:04;29.10;98.00
15357;DHT22;7778;48.792;9.260;2023-05-07T08:40:50;29.80;96.80
15357;DHT22;7778;48.792;9.260;2023-05-07T08:43:38;30.70;96.10
15357;DHT22;7778;48.792;9.260;2023-05-07T08:46:29;30.40;94.60
15357;DHT22;7778;48.792;9.260;2023-05-07T08:49:17;29.70;95.00
15357;DHT22;7778;48.792;9.260;2023-05-07T08:52:04;29.20;96.10
15357;DHT22;7778;48.792;9.260;2023-05-07T08:54:50;28.90;96.40
15357;DHT22;7778;48.792;9.260;2023-05-07T08:57:35;29.20;96.40
15357;DHT22;7778;48.792;9.260;2023-05-07T09:00:21;29.50;95.90
15357;DHT22;7778;48.792;9.260;2023-05-07T09:03:07;30.10;94.00
15357;DHT22;7778;48.792;9.260;2023-05-07T09:05:56;30.60;92.40
15357;DHT22;7778;48.792;9.260;2023-05-07T09:08:49;30.90;94.10
15357;DHT22;7778;48.792;9.260;2023-05-07T09:11:36;30.60;91.10
15357;DHT22;7778;48.792;9.260;2023-05-07T09:14:22;30.80;92.50
15357;DHT22;7778;48.792;9.260;2023-05-07T09:17:07;31.80;91.60
15357;DHT22;7778;48.792;9.260;2023-05-07T09:19:53;31.90;92.10
15357;DHT22;7778;48.792;9.260;2023-05-07T09:22:38;32.20;90.70
15357;DHT22;7778;48.792;9.260;2023-05-07T09:25:33;31.40;88.20
15357;DHT22;7778;48.792;9.260;2023-05-07T09:28:19;31.30;90.70
15357;DHT22;7778;48.792;9.260;2023-05-07T09:31:05;30.40;85.80
15357;DHT22;7778;48.792;9.260;2023-05-07T09:33:52;30.60;89.00
15357;DHT22;7778;48.792;9.260;2023-05-07T09:36:40;30.70;89.20
15357;DHT22;7778;48.792;9.260;2023-05-07T09:39:25;30.50;86.20
15357;DHT22;7778;48.792;9.260;2023-05-07T09:42:13;30.30;88.20
15357;DHT22;7778;48.792;9.260;2023-05-07T09:45:00;30.70;87.90
15357;DHT22;7778;48.792;9.260;2023-05-07T09:47:46;30.90;84.80
15357;DHT22;7778;48.792;9.260;2023-05-07T09:50:36;31.40;89.30
15357;DHT22;7778;48.792;9.260;2023-05-07T09:53:30;31.20;86.20
15357;DHT22;7778;48.792;9.260;2023-05-07T09:56:16;31.00;85.30
15357;DHT22;7778;48.792;9.260;2023-05-07T09:59:05;31.60;82.70
15357;DHT22;7778;48.792;9.260;2023-05-07T10:01:52;31.60;82.30
15357;DHT22;7778;48.792;9.260;2023-05-07T10:04:42;32.00;89.70
15357;DHT22;7778;48.792;9.260;2023-05-07T10:07:28;32.20;83.60
15357;DHT22;7778;48.792;9.260;2023-05-07T10:10:14;32.40;83.40
15357;DHT22;7778;48.792;9.260;2023-05-07T10:13:01;32.30;81.20
15357;DHT22;7778;48.792;9.260;2023-05-07T10:15:51;31.60;84.60
15357;DHT22;7778;48.792;9.260;2023-05-07T10:18:37;31.90;82.00
15357;DHT22;7778;48.792;9.260;2023-05-07T10:21:24;32.10;86.30
15357;DHT22;7778;48.792;9.260;2023-05-07T10:24:16;32.50;84.50
15357;DHT22;7778;48.792;9.260;2023-05-07T10:27:10;33.10;85.40
15357;DHT22;7778;48.792;9.260;2023-05-07T10:30:07;33.20;79.90
15357;DHT22;7778;48.792;9.260;2023-05-07T10:33:03;32.50;78.40
15357;DHT22;7778;48.792;9.260;2023-05-07T10:35:58;31.90;82.60
15357;DHT22;7778;48.792;9.260;2023-05-07T10:38:46;31.60;80.10
15357;DHT22;7778;48.792;9.260;2023-05-07T10:41:31;30.90;78.20
15357;DHT22;7778;48.792;9.260;2023-05-07T10:44:27;30.60;86.80
15357;DHT22;7778;48.792;9.260;2023-05-07T10:47:16;30.50;83.00
15357;DHT22;7778;48.792;9.260;2023-05-07T10:50:22;30.80;85.40
15357;DHT22;7778;48.792;9.260;2023-05-07T10:53:25;31.60;81.40
15357;DHT22;7778;48.792;9.260;2023-05-07T10:56:25;31.20;78.00
15357;DHT22;7778;48.792;9.260;2023-05-07T10:59:35;31.00;79.30
15357;DHT22;7778;48.792;9.260;2023-05-07T11:03:05;30.00;77.70
15357;DHT22;7778;48.792;9.260;2023-05-07T11:06:11;28.60;83.70
15357;DHT22;7778;48.792;9.260;2023-05-07T11:08:58;27.80;89.10
15357;DHT22;7778;48.792;9.260;2023-05-07T11:11:44;27.10;90.50
15357;DHT22;7778;48.792;9.260;2023-05-07T11:14:43;26.70;91.00
15357;DHT22;7778;48.792;9.260;2023-05-07T11:17:30;26.40;92.10
15357;DHT22;7778;48.792;9.260;2023-05-07T11:20:16;26.40;93.40
15357;DHT22;7778;48.792;9.260;2023-05-07T11:23:03;26.60;92.70
15357;DHT22;7778;48.792;9.260;2023-05-07T11:25:49;26.40;92.00
15357;DHT22;7778;48.792;9.260;2023-05-07T11:28:37;26.00;93.20
15357;DHT22;7778;48.792;9.260;2023-05-07T11:31:25;25.60;92.80
15357;DHT22;7778;48.792;9.260;2023-05-07T11:34:12;25.20;93.90
15357;DHT22;7778;48.792;9.260;2023-05-07T11:36:59;25.00;94.10
15357;DHT22;7778;48.792;9.260;2023-05-07T11:39:47;24.60;94.60
15357;DHT22;7778;48.792;9.260;2023-05-07T11:42:39;24.60;95.20
15357;DHT22;7778;48.792;9.260;2023-05-07T11:45:26;24.80;96.00
15357;DHT22;7778;48.792;9.260;2023-05-07T11:48:13;24.80;95.40
15357;DHT22;7778;48.792;9.260;2023-05-07T11:51:01;24.70;95.40
15357;DHT22;7778;48.792;9.260;2023-05-07T11:53:47;24.60;94.80
15357;DHT22;7778;48.792;9.260;2023-05-07T11:56:35;24.50;95.10
15357;DHT22;7778;48.792;9.260;2023-05-07T11:59:21;24.50;94.70
15357;DHT22;7778;48.792;9.260;2023-05-07T12:02:07;24.40;95.40
15357;DHT22;7778;48.792;9.260;2023-05-07T12:04:53;24.40;95.20
15357;DHT22;7778;48.792;9.260;2023-05-07T12:07:39;24.40;95.30
15357;DHT22;7778;48.792;9.260;2023-05-07T12:10:25;24.30;94.30
15357;DHT22;7778;48.792;9.260;2023-05-07T12:13:16;24.10;96.20
15357;DHT22;7778;48.792;9.260;2023-05-07T12:16:02;23.90;95.90
15357;DHT22;7778;48.792;9.260;2023-05-07T12:18:50;23.40;96.90
15357;DHT22;7778;48.792;9.260;2023-05-07T12:21:36;23.20;96.90
15357;DHT22;7778;48.792;9.260;2023-05-07T12:24:22;22.90;98.10
15357;DHT22;7778;48.792;9.260;2023-05-07T12:27:09;22.70;98.90
15357;DHT22;7778;48.792;9.260;2023-05-07T12:29:57;22.60;99.90
15357;DHT22;7778;48.792;9.260;2023-05-07T12:32:45;22.50;99.90
15357;DHT22;7778;48.792;9.260;2023-05-07T12:35:32;22.40;99.90
15357;DHT22;7778;48.792;9.260;2023-05-07T12:38:23;21.70;99.90
15357;DHT22;7778;48.792;9.260;2023-05-07T12:41:10;21.30;99.90
15357;DHT22;7778;48.792;9.260;2023-05-07T12:43:56;21.20;99.90
15357;DHT22;7778;48.792;9.260;2023-05-07T12:46:44;21.20;99.90
15357;DHT22;7778;48.792;9.260;2023-05-07T12:49:29;20.80;99.90
15357;DHT22;7778;48.792;9.260;2023-05-07T12:52:15;20.30;99.90
15357;DHT22;7778;48.792;9.260;2023-05-07T12:55:05;19.80;99.90
15357;DHT22;7778;48.792;9.260;2023-05-07T12:57:53;19.30;99.90
15357;DHT22;7778;48.792;9.260;2023-05-07T13:00:39;19.20;99.90
15357;DHT22;7778;48.792;9.260;2023-05-07T13:03:27;19.00;99.90
15357;DHT22;7778;48.792;9.260;2023-05-07T13:06:14;18.90;99.90
15357;DHT22;7778;48.792;9.260;2023-05-07T13:08:59;18.70;99.90
15357;DHT22;7778;48.792;9.260;2023-05-07T13:11:45;18.50;99.90
15357;DHT22;7778;48.792;9.260;2023-05-07T13:14:31;18.20;99.90
15357;DHT22;7778;48.792;9.260;2023-05-07T13:17:17;17.60;99.90
15357;DHT22;7778;48.792;9.260;2023-05-07T13:20:05;17.40;99.90
15357;DHT22;7778;48.792;9.260;2023-05-07T13:22:52;17.40;99.90
15357;DHT22;7778;48.792;9.260;2023-05-07T13:25:37;17.30;99.90
15357;DHT22;7778;48.792;9.260;2023-05-07T13:28:24;17.00;99.90
15357;DHT22;7778;48.792;9.260;2023-05-07T13:31:10;16.60;99.90
15357;DHT22;7778;48.792;9.260;2023-05-07T13:33:55;16.00;99.90
15357;DHT22;7778;48.792;9.260;2023-05-07T13:36:42;15.40;99.90
15357;DHT22;7778;48.792;9.260;2023-05-07T13:39:28;15.40;99.90
15357;DHT22;7778;48.792;9.260;2023-05-07T13:42:13;15.50;99.90
15357;DHT22;7778;48.792;9.260;2023-05-07T13:44:59;15.50;99.90
15357;DHT22;7778;48.792;9.260;2023-05-07T13:47:47;15.30;99.90
15357;DHT22;7778;48.792;9.260;2023-05-07T13:50:33;15.40;99.90
15357;DHT22;7778;48.792;9.260;2023-05-07T13:53:21;15.40;99.90
15357;DHT22;7778;48.792;9.260;2023-05-07T13:56:06;15.50;99.90
15357;DHT22;7778;48.792;9.260;2023-05-07T13:58:52;15.80;99.90
15357;DHT22;7778;48.792;9.260;2023-05-07T14:01:37;15.90;99.90
15357;DHT22;7778;48.792;9.260;2023-05-07T14:04:23;15.90;99.90
15357;DHT22;7778;48.792;9.260;2023-05-07T14:07:09;15.80;99.90
15357;DHT22;7778;48.792;9.260;2023-05-07T14:09:56;15.90;99.90
15357;DHT22;7778;48.792;9.260;2023-05-07T14:12:43;15.90;99.90
15357;DHT22;7778;48.792;9.260;2023-05-07T14:15:29;15.80;99.90
15357;DHT22;7778;48.792;9.260;2023-05-07T14:18:16;15.40;99.90
15357;DHT22;7778;48.792;9.260;2023-05-07T14:21:02;15.50;99.90
15357;DHT22;7778;48.792;9.260;2023-05-07T14:23:48;15.50;99.90
15357;DHT22;7778;48.792;9.260;2023-05-07T14:26:34;15.60;99.90
15357;DHT22;7778;48.792;9.260;2023-05-07T14:29:20;15.40;99.90
15357;DHT22;7778;48.792;9.260;2023-05-07T14:32:06;15.30;99.90
15357;DHT22;7778;48.792;9.260;2023-05-07T14:34:52;15.20;99.90
15357;DHT22;7778;48.792;9.260;2023-05-07T14:37:37;15.30;99.90
15357;DHT22;7778;48.792;9.260;2023-05-07T14:40:23;15.20;99.90
15357;DHT22;7778;48.792;9.260;2023-05-07T14:43:10;15.30;99.90
15357;DHT22;7778;48.792;9.260;2023-05-07T14:45:55;15.40;99.90
15357;DHT22;7778;48.792;9.260;2023-05-07T14:48:41;15.50;99.90
15357;DHT22;7778;48.792;9.260;2023-05-07T14:51:28;15.60;99.90
15357;DHT22;7778;48.792;9.260;2023-05-07T14:54:15;15.80;99.90
15357;DHT22;7778;48.792;9.260;2023-05-07T14:57:00;15.90;99.90
15357;DHT22;7778;48.792;9.260;2023-05-07T14:59:47;16.00;99.90
15357;DHT22;7778;48.792;9.260;2023-05-07T15:02:34;15.90;99.90
15357;DHT22;7778;48.792;9.260;2023-05-07T15:05:19;16.00;99.90
15357;DHT22;7778;48.792;9.260;2023-05-07T15:08:05;16.20;99.90
15357;DHT22;7778;48.792;9.260;2023-05-07T15:10:51;16.40;99.90
15357;DHT22;7778;48.792;9.260;2023-05-07T15:13:36;16.60;99.90
15357;DHT22;7778;48.792;9.260;2023-05-07T15:16:23;16.80;99.90
15357;DHT22;7778;48.792;9.260;2023-05-07T15:19:09;16.70;99.90
15357;DHT22;7778;48.792;9.260;2023-05-07T15:21:59;16.50;99.90
15357;DHT22;7778;48.792;9.260;2023-05-07T15:24:46;16.20;99.90
15357;DHT22;7778;48.792;9.260;2023-05-07T15:27:32;16.30;99.90
15357;DHT22;7778;48.792;9.260;2023-05-07T15:30:17;16.10;99.90
15357;DHT22;7778;48.792;9.260;2023-05-07T15:33:05;16.20;99.90
15357;DHT22;7778;48.792;9.260;2023-05-07T15:35:51;16.20;99.90
15357;DHT22;7778;48.792;9.260;2023-05-07T15:38:37;16.20;99.90
15357;DHT22;7778;48.792;9.260;2023-05-07T15:41:22;16.20;99.90
15357;DHT22;7778;48.792;9.260;2023-05-07T15:44:08;16.40;99.90
15357;DHT22;7778;48.792;9.260;2023-05-07T15:46:54;16.50;99.90
15357;DHT22;7778;48.792;9.260;2023-05-07T15:49:41;16.70;99.90
15357;DHT22;7778;48.792;9.260;2023-05-07T15:52:27;16.80;99.90
15357;DHT22;7778;48.792;9.260;2023-05-07T15:55:13;16.80;99.90
15357;DHT22;7778;48.792;9.260;2023-05-07T15:57:59;16.80;99.90
15357;DHT22;7778;48.792;9.260;2023-05-07T16:00:46;16.80;99.90
15357;DHT22;7778;48.792;9.260;2023-05-07T16:03:31;16.50;99.90
15357;DHT22;7778;48.792;9.260;2023-05-07T16:06:19;16.40;99.90
15357;DHT22;7778;48.792;9.260;2023-05-07T16:09:04;16.50;99.90
15357;DHT22;7778;48.792;9.260;2023-05-07T16:11:50;16.60;99.90
15357;DHT22;7778;48.792;9.260;2023-05-07T16:14:36;16.80;99.90
15357;DHT22;7778;48.792;9.260;2023-05-07T16:17:22;16.60;99.90
15357;DHT22;7778;48.792;9.260;2023-05-07T16:20:08;16.40;99.90
15357;DHT22;7778;48.792;9.260;2023-05-07T16:22:57;16.20;99.90
15357;DHT22;7778;48.792;9.260;2023-05-07T16:25:43;16.30;99.90
15357;DHT22;7778;48.792;9.260;2023-05-07T16:28:29;16.20;99.90
15357;DHT22;7778;48.792;9.260;2023-05-07T16:31:15;16.20;99.90
15357;DHT22;7778;48.792;9.260;2023-05-07T16:34:00;16.40;99.90
15357;DHT22;7778;48.792;9.260;2023-05-07T16:36:48;16.50;99.90
15357;DHT22;7778;48.792;9.260;2023-05-07T16:39:35;16.70;99.90
15357;DHT22;7778;48.792;9.260;2023-05-07T16:42:24;16.80;99.90
15357;DHT22;7778;48.792;9.260;2023-05-07T16:45:10;16.90;99.90
15357;DHT22;7778;48.792;9.260;2023-05-07T16:47:56;16.90;99.90
15357;DHT22;7778;48.792;9.260;2023-05-07T16:50:42;17.00;99.90
15357;DHT22;7778;48.792;9.260;2023-05-07T16:53:28;17.10;99.90
15357;DHT22;7778;48.792;9.260;2023-05-07T16:56:15;17.20;99.90
15357;DHT22;7778;48.792;9.260;2023-05-07T16:59:01;17.20;99.90
15357;DHT22;7778;48.792;9.260;2023-05-07T17:01:46;17.20;99.90
15357;DHT22;7778;48.792;9.260;2023-05-07T17:04:32;17.10;99.90
15357;DHT22;7778;48.792;9.260;2023-05-07T17:07:17;16.90;99.90
15357;DHT22;7778;48.792;9.260;2023-05-07T17:10:04;16.90;99.90
15357;DHT22;7778;48.792;9.260;2023-05-07T17:12:52;16.80;99.90
15357;DHT22;7778;48.792;9.260;2023-05-07T17:15:37;16.80;99.90
15357;DHT22;7778;48.792;9.260;2023-05-07T17:18:26;16.90;99.90
15357;DHT22;7778;48.792;9.260;2023-05-07T17:21:13;16.90;99.90
15357;DHT22;7778;48.792;9.260;2023-05-07T17:23:59;17.00;99.90
15357;DHT22;7778;48.792;9.260;2023-05-07T17:26:46;17.10;99.90
15357;DHT22;7778;48.792;9.260;2023-05-07T17:29:33;17.40;99.90
15357;DHT22;7778;48.792;9.260;2023-05-07T17:32:19;17.20;99.90
15357;DHT22;7778;48.792;9.260;2023-05-07T17:35:05;17.40;99.90
15357;DHT22;7778;48.792;9.260;2023-05-07T17:37:52;17.10;99.90
15357;DHT22;7778;48.792;9.260;2023-05-07T17:40:38;17.00;99.90
15357;DHT22;7778;48.792;9.260;2023-05-07T17:43:23;17.10;99.90
15357;DHT22;7778;48.792;9.260;2023-05-07T17:46:10;17.10;99.90
15357;DHT22;7778;48.792;9.260;2023-05-07T17:52:58;17.10;99.90
15357;DHT22;7778;48.792;9.260;2023-05-07T17:55:49;16.90;99.90